Latest Coastal Weather Observations for Maroochydore

IDQ60701

Issued at 2:21 am EST Sunday 24 May 2015 (issued every 10 minutes, with the page automatically refreshed every 10 minutes)

About coastal observations | Map of coastal stations | Coastal observations for QLD | Marine services | Other Formats
Station Details ID: 040861 Name: SUNSHINE COAST AIRPORT Lat: -26.60 Lon: 153.09 Height: 3.3 m
Data from the previous 72 hours. | See also: Recent months at Maroochydore
Date/Time
EST
Temp

°C
Wind Pressure Rain
since 9am
mm
Weather Cloud Vis
km
Sea
Height
m
Swell
Dir
 
Speed
knots
Gust
knots
hPa Trend Height
m
Period
s
Dir
24/02:00am 15.4 S 12 15 1025.0 - 0.0 - - 10 - - - -
24/01:30am 15.8 SSW 12 15 1024.8 - 0.0 - - 10 - - - -
24/12:30am 15.9 S 11 14 1024.9 - 0.0 - - 10 - - - -
 
Date/Time
EST
Temp

°C
Wind Pressure Rain
since 9am
mm
Weather Cloud Vis
km
Sea
Height
m
Swell
Dir
 
Speed
knots
Gust
knots
hPa Trend Height
m
Period
s
Dir
23/11:30pm 16.2 S 15 19 1024.7 - 0.0 - - 10 - - - -
23/11:00pm 16.3 S 13 18 1024.5 - 0.0 - - 10 - - - -
23/10:30pm 16.4 S 11 16 1024.7 - 0.0 - - 10 - - - -
23/10:00pm 16.7 S 11 15 1024.5 - 0.0 - - 10 - - - -
23/09:30pm 17.0 S 12 17 1024.6 - 0.0 - - 10 - - - -
23/09:00pm 17.1 S 11 17 1024.6 - 0.0 - Mostly clear 10 - - - -
23/08:30pm 17.4 S 11 16 1024.6 - 0.0 - Partly cloudy 10 - - - -
23/08:00pm 18.1 S 11 14 1024.6 - 0.0 - Cloudy 10 - - - -
23/07:30pm 18.0 S 11 15 1024.4 - 0.0 - Partly cloudy 10 - - - -
23/07:00pm 18.3 S 12 19 1024.2 - 0.0 - Partly cloudy 10 - - - -
23/06:30pm 18.9 S 13 19 1024.1 - 0.0 - Cloudy 10 - - - -
23/06:00pm 18.6 S 11 16 1023.9 - 0.0 - Cloudy 10 - - - -
23/05:30pm 18.3 S 12 18 1023.5 - 0.0 - Partly cloudy 10 - - - -
23/05:00pm 19.1 S 17 23 1023.2 - 0.0 - Partly cloudy 10 - - - -
23/04:30pm 19.7 S 16 22 1023.2 - 0.0 - - 10 - - - -
23/04:00pm 20.4 S 16 22 1023.1 - 0.0 - - 10 - - - -
23/03:30pm 20.7 SSE 18 28 1022.6 - 0.0 - - 10 - - - -
23/03:04pm 21.3 SSE 16 27 1022.2 - 0.0 - - 10 - - - -
23/03:00pm 21.3 SSE 17 26 1022.3 - 0.0 - - 10 - - - -
23/02:34pm 21.5 S 19 29 1022.4 - 0.0 - - 10 - - - -
23/02:30pm 21.6 S 20 27 1022.3 - 0.0 - - 10 - - - -
23/02:00pm 21.5 SSE 22 35 1022.0 - 0.0 - - 10 - - - -
23/01:38pm 21.5 S 22 32 1021.9 - 0.0 - - 10 - - - -
23/01:30pm 21.5 SSE 21 30 1021.8 - 0.0 - - 10 - - - -
23/01:01pm 21.6 S 22 32 1022.0 - 0.0 - - 10 - - - -
23/01:00pm 21.6 S 21 29 1022.0 - 0.0 - - 10 - - - -
23/12:50pm 21.7 SSE 20 30 1022.2 - 0.0 - - 10 - - - -
23/12:30pm 22.2 S 20 29 1022.0 - 0.0 - - 10 - - - -
23/12:07pm 21.7 S 19 29 1022.1 - 0.0 - - 10 - - - -
23/12:00pm 21.8 SSE 20 29 1022.2 - 0.0 - - 10 - - - -
23/11:31am 21.6 S 18 29 1022.6 - 0.0 - - 10 - - - -
23/11:30am 22.0 S 17 26 1022.6 - 0.0 - - 10 - - - -
23/11:12am 21.3 S 18 28 1022.8 - 0.0 - - 10 - - - -
23/11:00am 21.0 S 21 29 1022.9 - 0.0 - - 10 - - - -
23/10:30am 20.9 S 18 29 1022.9 - 0.0 - - 10 - - - -
23/10:22am 21.2 S 17 27 1022.9 - 0.0 - - 10 - - - -
23/10:00am 20.2 S 18 23 1022.5 - 0.0 - - 10 - - - -
23/09:30am 19.4 S 17 24 1022.3 - 0.0 - - 10 - - - -
23/09:00am 18.7 S 15 22 1022.0 - 0.0 - - 10 - - - -
23/08:30am 18.2 S 15 23 1021.9 - 0.0 - - 10 - - - -
23/08:20am 17.6 S 16 26 1021.7 - 0.0 - - 10 - - - -
23/08:00am 17.0 S 15 19 1021.5 - 0.0 - - 10 - - - -
23/07:30am 16.1 SSW 14 18 1021.1 - 0.0 - - 10 - - - -
23/07:00am 15.6 SSW 12 18 1020.6 - 0.0 - - 10 - - - -
23/06:30am 15.3 SSW 12 18 1020.2 - 0.0 - - 10 - - - -
23/06:00am 14.4 SW 8 13 1020.0 - 0.0 - - 10 - - - -
23/05:30am 14.3 SSW 9 12 1019.6 - 0.0 - - 10 - - - -
23/05:00am 14.2 SW 8 11 1019.4 - 0.0 - - 10 - - - -
23/04:30am 14.1 SW 8 11 1019.3 - 0.0 - - 10 - - - -
23/04:00am 14.6 SW 9 11 1019.0 - 0.0 - - 10 - - - -
23/03:30am 14.7 SW 8 12 1019.0 - 0.0 - - 10 - - - -
23/03:00am 15.2 SW 10 14 1018.8 - 0.0 - - 10 - - - -
23/02:30am 15.0 SW 9 12 1018.7 - 0.0 - - 10 - - - -
23/02:00am 15.1 SW 11 14 1018.7 - 0.0 - Partly cloudy 10 - - - -
23/01:30am 14.3 SW 8 13 1018.9 - 0.0 - - 10 - - - -
23/01:00am 13.7 WSW 8 10 1019.0 - 0.0 - - 10 - - - -
23/12:30am 13.6 SW 9 10 1019.2 - 0.0 - - 10 - - - -
23/12:00am 12.9 WSW 7 8 1019.1 - 0.0 - - 10 - - - -
 
Date/Time
EST
Temp

°C
Wind Pressure Rain
since 9am
mm
Weather Cloud Vis
km
Sea
Height
m
Swell
Dir
 
Speed
knots
Gust
knots
hPa Trend Height
m
Period
s
Dir
22/11:30pm 13.0 WNW 5 7 1019.3 - 0.0 - - 10 - - - -
22/11:00pm 13.6 WSW 10 14 1019.1 - 0.0 - - 10 - - - -
22/10:30pm 13.2 WSW 5 8 1019.4 - 0.0 - - 10 - - - -
22/10:00pm 13.7 WSW 9 13 1019.3 - 0.0 - - 10 - - - -
22/09:30pm 13.4 W 8 11 1019.2 - 0.0 - - 10 - - - -
22/09:00pm 13.0 W 7 9 1019.1 - 0.0 - - 10 - - - -
22/08:30pm 12.3 WNW 6 9 1018.9 - 0.0 - - 10 - - - -
22/08:00pm 11.6 N 6 7 1018.5 - 0.0 - - 10 - - - -
22/07:30pm 13.7 W 3 8 1018.4 - 0.0 - - 10 - - - -
22/07:00pm 14.6 WSW 7 11 1017.9 - 0.0 - - 10 - - - -
22/06:30pm 14.9 WSW 14 20 1017.2 - 0.0 - - 10 - - - -
22/06:00pm 14.7 WSW 12 16 1017.1 - 0.0 - - 10 - - - -
22/05:30pm 15.2 W 13 17 1016.8 - 0.0 - - 10 - - - -
22/05:00pm 15.8 WSW 12 16 1016.6 - 0.0 - - 10 - - - -
22/04:30pm 16.8 WSW 15 21 1016.2 - 0.0 - - 10 - - - -
22/04:07pm 17.8 WSW 15 25 1016.0 - 0.0 - - 10 - - - -
22/04:00pm 17.9 W 17 25 1015.8 - 0.0 - - 10 - - - -
22/03:30pm 18.7 WSW 18 25 1015.3 - 0.0 - - 10 - - - -
22/03:20pm 18.9 WSW 19 29 1015.2 - 0.0 - - 10 - - - -
22/03:00pm 19.1 WSW 17 25 1015.2 - 0.0 - - 10 - - - -
22/02:30pm 19.3 WSW 17 25 1015.2 - 0.0 - - 10 - - - -
22/02:00pm 20.0 WSW 19 27 1015.2 - 0.0 - - 10 - - - -
22/01:44pm 20.8 WSW 15 25 1015.2 - 0.0 - - 10 - - - -
22/01:30pm 20.3 WSW 15 21 1015.3 - 0.0 - - 10 - - - -
22/01:00pm 20.2 WSW 13 20 1015.7 - 0.0 - - 10 - - - -
22/12:30pm 20.1 W 13 19 1016.0 - 0.0 - - 10 - - - -
22/12:00pm 19.7 W 11 19 1016.3 - 0.0 - - 10 - - - -
22/11:30am 19.4 WSW 13 19 1016.7 - 0.0 - - 10 - - - -
22/11:00am 19.2 WSW 11 17 1017.1 - 0.0 - - 10 - - - -
22/10:30am 19.1 SW 11 15 1017.2 - 0.0 - - 10 - - - -
22/10:00am 19.0 WSW 10 15 1017.4 - 0.0 - - 10 - - - -
22/09:30am 17.6 WSW 10 13 1017.7 - 0.0 - Partly cloudy 10 - - - -
22/09:00am 18.5 SW 9 11 1017.6 - 5.4 - Cloudy 10 - - - -
22/08:30am 17.3 WSW 9 12 1017.3 - 5.4 - Partly cloudy 10 - - - -
22/08:00am 16.2 W 8 10 1017.0 - 5.4 - - 10 - - - -
22/07:30am 14.9 W 6 8 1017.0 - 5.4 - - 10 - - - -
22/07:00am 15.4 W 6 7 1016.8 - 5.4 - Partly cloudy 10 - - - -
22/06:30am 16.2 WSW 4 5 1016.7 - 5.4 - Cloudy 10 - - - -
22/06:00am 16.3 WSW 4 5 1016.0 - 5.4 - Cloudy 10 - - - -
22/05:30am 16.4 CALM 0 0 1015.7 - 5.4 - Partly cloudy 10 - - - -
22/05:11am 16.6 NNW 2 3 1015.7 - 5.4 - Partly cloudy 10 - - - -
22/05:00am 16.6 NNW 1 4 1015.5 - 5.4 - Partly cloudy 10 - - - -
22/04:30am 16.7 CALM 0 0 1015.3 - 5.4 - Partly cloudy 10 - - - -
22/04:21am 16.7 CALM 0 0 1015.5 - 5.4 - Partly cloudy 10 - - - -
22/04:00am 16.6 CALM 0 0 1015.5 - 5.4 - Partly cloudy 10 - - - -
22/03:48am 16.6 CALM 0 0 1016.0 - 5.2 - Partly cloudy 10 - - - -
22/03:30am 16.6 NNW 2 4 1015.9 - 5.0 - Partly cloudy 6 - - - -
22/03:19am 16.6 N 4 5 1016.1 - 4.4 - Partly cloudy 7 - - - -
22/03:00am 16.8 CALM 0 0 1015.9 - 4.0 - Cloudy 5 - - - -
22/02:57am 16.8 CALM 0 0 1016.0 - 3.8 - Partly cloudy 5 - - - -
22/02:30am 16.8 WNW 4 4 1016.1 - 3.4 - Partly cloudy 10 - - - -
22/02:00am 16.7 WNW 4 4 1016.3 - 3.0 - Partly cloudy 10 - - - -
22/01:30am 16.7 SSW 6 8 1016.2 - 2.8 - Partly cloudy 10 - - - -
22/01:00am 16.8 SSE 4 6 1016.7 - 2.8 - Partly cloudy 10 - - - -
22/12:30am 17.2 S 5 7 1017.3 - 2.2 - Partly cloudy 10 - - - -
22/12:00am 17.9 SW 5 8 1017.4 - 1.2 - Cloudy 10 - - - -
 
Date/Time
EST
Temp

°C
Wind Pressure Rain
since 9am
mm
Weather Cloud Vis
km
Sea
Height
m
Swell
Dir
 
Speed
knots
Gust
knots
hPa Trend Height
m
Period
s
Dir
21/11:30pm 19.3 S 7 7 1016.9 - 0.2 - Cloudy 10 - - - -
21/11:00pm 19.3 S 4 6 1017.0 - 0.2 - Cloudy 10 - - - -
21/10:30pm 19.2 SSE 4 5 1017.1 - 0.2 - Partly cloudy 10 - - - -
21/10:00pm 19.4 S 4 5 1017.4 - 0.2 - Partly cloudy 10 - - - -
21/09:30pm 19.4 S 3 4 1017.3 - 0.2 - Partly cloudy 10 - - - -
21/09:00pm 19.6 SSE 4 5 1017.4 - 0.2 - Cloudy 10 - - - -
21/08:30pm 19.8 SE 3 4 1017.3 - 0.2 - Partly cloudy 10 - - - -
21/08:00pm 20.4 SSW 6 7 1017.3 - 0.2 - Cloudy 10 - - - -
21/07:30pm 20.6 S 7 9 1017.3 - 0.2 - Partly cloudy 10 - - - -
21/07:00pm 20.5 SSW 11 16 1017.2 - 0.2 - Partly cloudy 10 - - - -
21/06:30pm 21.7 SSW 10 17 1016.9 - 0.2 - Partly cloudy 10 - - - -
21/06:00pm 22.0 SSW 12 17 1016.7 - 0.2 - Cloudy 10 - - - -
21/05:30pm 22.2 S 11 13 1016.2 - 0.2 - Partly cloudy 10 - - - -
21/05:00pm 22.4 S 11 15 1016.0 - 0.2 - Partly cloudy 10 - - - -
21/04:30pm 22.6 NNE 7 9 1015.3 - 0.2 - Partly cloudy 10 - - - -
21/04:00pm 24.1 NNE 9 10 1015.2 - 0.2 - - 10 - - - -
21/03:30pm 25.4 NE 8 10 1015.0 - 0.2 - Partly cloudy 10 - - - -
21/03:00pm 26.0 N 6 11 1014.9 - 0.2 - Mostly clear 10 - - - -
21/02:30pm 27.3 NW 8 11 1014.8 - 0.2 - - 10 - - - -
21/02:00pm 27.1 W 9 15 1015.0 - 0.2 - Partly cloudy 10 - - - -
21/01:30pm 28.0 WNW 9 12 1015.1 - 0.0 - - 10 - - - -
21/01:00pm 26.9 W 9 13 1015.7 - 0.0 - Partly cloudy 10 - - - -
21/12:30pm 26.3 W 7 11 1016.2 - 0.0 - Partly cloudy 10 - - - -
21/12:00pm 26.7 NW 10 14 1016.8 - 0.0 - - 10 - - - -
21/11:30am 26.4 NW 9 15 1017.6 - 0.0 - Partly cloudy 10 - - - -
21/11:00am 25.2 NNW 10 15 1018.2 - 0.0 - Partly cloudy 10 - - - -
21/10:30am 22.8 WNW 10 15 1018.7 - 0.0 - Partly cloudy 10 - - - -
21/10:24am 23.1 WNW 10 13 1018.9 - 0.0 - Partly cloudy 10 - - - -
21/10:00am 22.9 NW 9 14 1019.0 - 0.0 - Partly cloudy 10 - - - -
21/09:30am 22.7 WNW 8 12 1019.1 - 0.0 - Partly cloudy 10 - - - -
21/09:28am 23.1 WNW 9 12 1019.0 - 0.0 - Partly cloudy 10 - - - -
21/09:00am 21.9 WNW 7 11 1019.1 - 0.0 - - 10 - - - -
21/08:30am 20.9 NW 7 10 1019.0 - 0.0 - - 10 - - - -
21/08:00am 19.9 NW 6 8 1019.0 - 0.0 - - 10 - - - -
21/07:30am 18.9 NNW 6 8 1018.8 - 0.0 - - 10 - - - -
21/07:00am 17.5 NNW 5 7 1018.4 - 0.0 - - 10 - - - -
21/06:30am 16.3 NW 7 8 1018.2 - 0.0 - - 10 - - - -
21/06:00am 15.9 WNW 6 8 1017.9 - 0.0 - - 10 - - - -
21/05:59am 15.9 WNW 6 8 1017.8 - 0.0 - - 10 - - - -
21/05:41am 15.8 WNW 6 7 1017.4 - 0.0 - - 6 - - - -
21/05:33am 15.9 WNW 5 6 1017.5 - 0.0 - - 10 - - - -
21/05:30am 15.9 NW 5 6 1017.5 - 0.0 - - 10 - - - -
21/05:04am 15.8 W 4 5 1017.6 - 0.0 - - 5 - - - -
21/05:00am 15.6 W 4 5 1017.6 - 0.0 - - 10 - - - -
21/04:49am 15.6 W 5 7 1017.6 - 0.0 - - 10 - - - -
21/04:30am 15.5 WNW 6 7 1017.4 - 0.0 - Partly cloudy 0.8 - - - -
21/04:05am 15.5 WNW 5 7 1017.6 - 0.0 - Partly cloudy 5 - - - -
21/04:00am 15.5 WNW 5 6 1017.5 - 0.0 - Partly cloudy 8 - - - -
21/03:30am 15.5 W 3 5 1017.4 - 0.0 - Partly cloudy 0.4 - - - -
21/03:25am 15.5 W 3 4 1017.4 - 0.0 - Partly cloudy 0.4 - - - -
21/03:04am 16.0 WNW 3 4 1017.6 - 0.0 - Partly cloudy 2 - - - -
21/03:00am 15.9 WNW 2 4 1017.7 - 0.0 - Mostly clear 1 - - - -
21/02:30am 16.0 WNW 3 4 1017.6 - 0.0 - Partly cloudy 0.9 - - - -

Other Formats:

Comma delimited format used in spreadsheet applications
http://www.bom.gov.au/fwo/IDQ60701/IDQ60701.94569.axf

JavaScript Object Notation format (JSON) in row-major order
http://www.bom.gov.au/fwo/IDQ60701/IDQ60701.94569.json